createdAt,value
2018-01-11T00:00:33.068Z,85.84
2018-01-11T00:01:32.312Z,85.78
2018-01-11T00:02:32.441Z,85.78
2018-01-11T00:03:32.773Z,85.61
2018-01-11T00:04:33.124Z,85.63
2018-01-11T00:05:32.293Z,85.65
2018-01-11T00:06:32.543Z,85.89
2018-01-11T00:07:32.826Z,85.95
2018-01-11T00:08:32.303Z,85.71
2018-01-11T00:09:32.473Z,85.77
2018-01-11T00:10:32.877Z,86
2018-01-11T00:11:32.171Z,85.77
2018-01-11T00:12:32.351Z,85.91
2018-01-11T00:13:32.593Z,85.91
2018-01-11T00:14:31.679Z,86.12
2018-01-11T00:15:32.178Z,86.27
2018-01-11T00:16:32.372Z,86.07
2018-01-11T00:17:32.385Z,86.05
2018-01-11T00:18:32.432Z,86.14
2018-01-11T00:19:31.750Z,85.84
2018-01-11T00:20:31.790Z,85.7
2018-01-11T00:21:31.971Z,85.78
2018-01-11T00:22:32.099Z,85.82
2018-01-11T00:23:32.325Z,85.97
2018-01-11T00:24:32.726Z,86.43
2018-01-11T00:25:31.993Z,86.18
2018-01-11T00:26:32.317Z,86
2018-01-11T00:27:32.690Z,86.07
2018-01-11T00:28:31.965Z,86
2018-01-11T00:29:32.116Z,85.73
2018-01-11T00:30:32.532Z,86.47
2018-01-11T00:31:31.751Z,86.15
2018-01-11T00:32:32.154Z,86.48
2018-01-11T00:33:32.428Z,86.16
2018-01-11T00:34:31.721Z,85.85
2018-01-11T00:35:31.986Z,86.09
2018-01-11T00:36:32.234Z,86.07
2018-01-11T00:37:32.422Z,85.97
2018-01-11T00:38:31.922Z,85.98
2018-01-11T00:39:32.134Z,85.78
2018-01-11T00:40:32.289Z,85.78
2018-01-11T00:41:31.699Z,85.96
2018-01-11T00:42:32.005Z,86.33
2018-01-11T00:43:32.378Z,86.45
2018-01-11T00:44:31.945Z,86.06
2018-01-11T00:45:32.258Z,86.61
2018-01-11T00:46:32.515Z,86.76
2018-01-11T00:47:31.585Z,86.6
2018-01-11T00:48:31.807Z,86.65
2018-01-11T00:49:32.058Z,86.65
2018-01-11T00:50:32.156Z,86.97
2018-01-11T00:51:32.290Z,86.87
2018-01-11T00:52:31.667Z,86.6
2018-01-11T00:53:31.933Z,86.45
2018-01-11T00:54:32.403Z,86.51
2018-01-11T00:55:32.533Z,86.81
2018-01-11T00:56:31.735Z,86.75
2018-01-11T00:57:31.948Z,86.75
2018-01-11T00:58:32.172Z,87.09
2018-01-11T00:59:32.391Z,87.12
2018-01-11T01:00:32.639Z,87.14
2018-01-11T01:01:31.896Z,87.27
2018-01-11T01:02:32.174Z,87.45
2018-01-11T01:03:32.548Z,87.09
2018-01-11T01:04:31.790Z,87.26
2018-01-11T01:05:32.048Z,87.31
2018-01-11T01:06:32.368Z,87.43
2018-01-11T01:07:31.785Z,87.34
2018-01-11T01:08:32.151Z,87.28
2018-01-11T01:09:32.462Z,87.42
2018-01-11T01:10:31.706Z,87.7
2018-01-11T01:11:31.872Z,87.71
2018-01-11T01:12:32.366Z,87.53
2018-01-11T01:13:32.710Z,87.27
2018-01-11T01:14:32.346Z,87.47
2018-01-11T01:15:32.453Z,87.33
2018-01-11T01:16:32.919Z,87.39
2018-01-11T01:17:33.087Z,87.46
2018-01-11T01:18:32.321Z,87.67
2018-01-11T01:19:32.607Z,87.46
2018-01-11T01:20:32.902Z,87.68
2018-01-11T01:21:33.378Z,87.63
2018-01-11T01:22:32.665Z,87.65
2018-01-11T01:23:32.880Z,87.51
2018-01-11T01:24:33.218Z,87.32
2018-01-11T01:25:32.932Z,87.18
2018-01-11T01:26:33.318Z,87.33
2018-01-11T01:27:32.701Z,87.2
2018-01-11T01:28:33.039Z,87.2
2018-01-11T01:29:32.373Z,87.04
2018-01-11T01:30:32.553Z,87.14
2018-01-11T01:31:32.906Z,87.42
2018-01-11T01:32:33.339Z,87.42
2018-01-11T01:33:32.671Z,87.22
2018-01-11T01:36:33.260Z,86.95
2018-01-11T01:37:32.494Z,86.91
2018-01-11T01:38:32.640Z,87.17
2018-01-11T01:39:32.888Z,87.23
2018-01-11T01:40:33.136Z,87.3
2018-01-11T01:41:32.598Z,87.3
2018-01-11T01:42:32.880Z,87.23
2018-01-11T01:43:33.072Z,87.18
2018-01-11T01:44:32.347Z,86.93
2018-01-11T01:45:31.600Z,87.11
2018-01-11T01:46:32.103Z,87.16
2018-01-11T01:47:31.347Z,87.36
2018-01-11T01:48:31.677Z,87.33
2018-01-11T01:49:32.014Z,86.99
2018-01-11T01:50:32.150Z,86.98
2018-01-11T01:51:31.381Z,87.4
2018-01-11T01:52:31.734Z,87.29
2018-01-11T01:53:32.002Z,86.94
2018-01-11T01:54:31.292Z,87.03
2018-01-11T01:55:31.453Z,87.05
2018-01-11T01:56:31.576Z,86.99
2018-01-11T01:57:32.098Z,86.74
2018-01-11T01:58:31.461Z,86.79
2018-01-11T01:59:31.778Z,86.74
2018-01-11T02:00:31.906Z,86.5
2018-01-11T02:01:32.075Z,86.72
2018-01-11T02:02:31.332Z,86.81
2018-01-11T02:03:31.594Z,86.88
2018-01-11T02:04:31.771Z,86.64
2018-01-11T02:05:31.958Z,86.66
2018-01-11T02:06:32.255Z,86.58
2018-01-11T02:07:31.612Z,86.77
2018-01-11T02:08:31.663Z,86.66
2018-01-11T02:09:31.748Z,86.45
2018-01-11T02:10:31.989Z,86.4
2018-01-11T02:11:32.379Z,86.48
2018-01-11T02:12:31.528Z,86.43
2018-01-11T02:13:31.779Z,86.41
2018-01-11T02:14:31.853Z,86.39
2018-01-11T02:15:32.157Z,86.44
2018-01-11T02:16:32.574Z,86.49
2018-01-11T02:17:32.696Z,86.67
2018-01-11T02:18:31.918Z,86.64
2018-01-11T02:19:33.048Z,86.85
2018-01-11T02:20:32.146Z,86.91
2018-01-11T02:21:32.239Z,86.76
2018-01-11T02:22:32.432Z,86.85
2018-01-11T02:23:32.658Z,86.73
2018-01-11T02:24:32.905Z,86.78
2018-01-11T02:25:32.348Z,86.92
2018-01-11T02:26:32.602Z,87.1
2018-01-11T02:27:32.951Z,87.04
2018-01-11T02:29:36.458Z,87.1
2018-01-11T02:30:32.808Z,87.08
2018-01-11T02:31:32.069Z,87.3
2018-01-11T02:32:32.327Z,87.25
2018-01-11T02:33:32.599Z,87.03
2018-01-11T02:34:33.189Z,87.1
2018-01-11T02:35:32.486Z,87.34
2018-01-11T02:36:32.646Z,87.13
2018-01-11T02:37:32.875Z,87.54
2018-01-11T02:38:32.185Z,87.44
2018-01-11T02:39:32.546Z,87.43
2018-01-11T02:40:32.708Z,87.13
2018-01-11T02:41:32.920Z,86.98
2018-01-11T02:42:32.297Z,87.35
2018-01-11T02:43:32.492Z,87.34
2018-01-11T02:45:32.765Z,87.16
2018-01-11T02:46:32.110Z,87.25
2018-01-11T02:47:32.201Z,87.51
2018-01-11T02:48:32.419Z,87.33
2018-01-11T02:49:32.555Z,87.55
2018-01-11T02:50:31.858Z,87.34
2018-01-11T02:51:32.070Z,87.51
2018-01-11T02:52:32.256Z,87.3
2018-01-11T02:53:32.473Z,87.27
2018-01-11T02:54:31.690Z,87.35
2018-01-11T02:55:31.974Z,87.15
2018-01-11T02:56:32.216Z,86.95
2018-01-11T02:57:32.504Z,86.86
2018-01-11T02:58:31.757Z,86.86
2018-01-11T02:59:32.020Z,86.92
2018-01-11T03:00:32.421Z,87.02
2018-01-11T03:01:31.898Z,87.08
2018-01-11T03:02:32.109Z,87.03
2018-01-11T03:03:32.384Z,87.21
2018-01-11T03:04:31.624Z,87.14
2018-01-11T03:05:32.013Z,87.04
2018-01-11T03:06:32.365Z,87.13
2018-01-11T03:07:31.758Z,87.29
2018-01-11T03:08:32.079Z,87.03
2018-01-11T03:09:32.361Z,87.1
2018-01-11T03:10:32.712Z,86.87
2018-01-11T03:11:31.976Z,86.92
2018-01-11T03:12:32.510Z,86.77
2018-01-11T03:13:31.728Z,86.77
2018-01-11T03:14:32.197Z,86.79
2018-01-11T03:15:32.606Z,87.19
2018-01-11T03:16:32.113Z,86.96
2018-01-11T03:17:32.504Z,87.38
2018-01-11T03:18:32.836Z,87.3
2018-01-11T03:19:32.080Z,87.6
2018-01-11T03:20:32.484Z,87.62
2018-01-11T03:21:32.793Z,87.47
2018-01-11T03:22:32.261Z,87.58
2018-01-11T03:23:32.517Z,87.53
2018-01-11T03:24:32.768Z,87.33
2018-01-11T03:25:32.028Z,87.3
2018-01-11T03:26:32.508Z,87.4
2018-01-11T03:27:32.918Z,87.14
2018-01-11T03:28:32.188Z,87.11
2018-01-11T03:29:32.390Z,87.13
2018-01-11T03:30:32.738Z,87.23
2018-01-11T03:31:32.914Z,87.25
2018-01-11T03:32:32.220Z,87.14
2018-01-11T03:33:32.761Z,87.15
2018-01-11T03:34:32.257Z,87.17
2018-01-11T03:35:32.747Z,87.18
2018-01-11T03:36:32.100Z,87.22
2018-01-11T03:37:32.312Z,87.08
2018-01-11T03:38:32.461Z,87.01
2018-01-11T03:39:32.784Z,87.19
2018-01-11T03:40:32.192Z,87.1
2018-01-11T03:41:32.335Z,87.1
2018-01-11T03:42:32.733Z,87.21
2018-01-11T03:43:32.212Z,87.08
2018-01-11T03:44:32.570Z,87.06
2018-01-11T03:45:33.010Z,87.28
2018-01-11T03:46:32.480Z,87.39
2018-01-11T03:47:31.912Z,87.7
2018-01-11T03:48:32.341Z,87.56
2018-01-11T03:49:31.707Z,87.97
2018-01-11T03:50:32.050Z,87.96
2018-01-11T03:51:32.311Z,87.89
2018-01-11T03:52:31.628Z,87.68
2018-01-11T03:53:31.904Z,87.45
2018-01-11T03:54:32.583Z,87.74
2018-01-11T03:55:31.884Z,87.73
2018-01-11T03:56:32.321Z,87.8
2018-01-11T03:57:31.707Z,87.97
2018-01-11T03:58:31.996Z,88.01
2018-01-11T03:59:32.326Z,87.7
2018-01-11T04:00:31.822Z,87.54
2018-01-11T04:01:32.156Z,87.31
2018-01-11T04:02:31.538Z,87.3
2018-01-11T04:03:31.930Z,87.43
2018-01-11T04:04:32.267Z,87.43
2018-01-11T04:05:31.885Z,87.7
2018-01-11T04:06:32.112Z,87.84
2018-01-11T04:07:32.459Z,87.76
2018-01-11T04:08:31.596Z,88.04
2018-01-11T04:09:31.751Z,87.67
2018-01-11T04:10:31.835Z,87.65
2018-01-11T04:11:32.102Z,87.59
2018-01-11T04:12:31.424Z,87.62
2018-01-11T04:13:31.515Z,87.76
2018-01-11T04:14:31.788Z,87.65
2018-01-11T04:15:31.999Z,87.42
2018-01-11T04:16:31.390Z,87.35
2018-01-11T04:17:31.570Z,87.48
2018-01-11T04:18:31.904Z,87.86
2018-01-11T04:19:32.182Z,87.97
2018-01-11T04:20:32.203Z,88
2018-01-11T04:21:32.334Z,87.9
2018-01-11T04:22:32.546Z,87.9
2018-01-11T04:23:31.837Z,87.62
2018-01-11T04:24:32.228Z,87.39
2018-01-11T04:25:32.492Z,87.27
2018-01-11T04:26:31.780Z,87.52
2018-01-11T04:27:31.911Z,87.48
2018-01-11T04:28:32.141Z,87.69
2018-01-11T04:29:32.504Z,87.41
2018-01-11T04:30:31.695Z,87.39
2018-01-11T04:31:31.791Z,87.33
2018-01-11T04:32:31.979Z,87.48
2018-01-11T04:33:32.227Z,87.69
2018-01-11T04:34:32.550Z,87.61
2018-01-11T04:35:31.975Z,88.06
2018-01-11T04:36:32.146Z,87.85
2018-01-11T04:37:32.673Z,87.85
2018-01-11T04:38:32.028Z,87.95
2018-01-11T04:39:32.281Z,88.12
2018-01-11T04:40:32.570Z,88.21
2018-01-11T04:41:31.921Z,88.49
2018-01-11T04:42:32.286Z,88.21
2018-01-11T04:43:32.455Z,88.47
2018-01-11T04:44:31.712Z,88.47
2018-01-11T04:45:32.108Z,88.37
2018-01-11T04:46:32.549Z,88.56
2018-01-11T04:47:31.879Z,88.71
2018-01-11T04:48:32.030Z,88.6
2018-01-11T04:49:32.133Z,88.75
2018-01-11T04:50:32.368Z,88.73
2018-01-11T04:51:32.676Z,88.84
2018-01-11T04:52:32.943Z,88.72
2018-01-11T04:53:32.148Z,88.76
2018-01-11T04:54:32.323Z,88.73
2018-01-11T04:55:32.446Z,88.71
2018-01-11T04:56:32.616Z,88.69
2018-01-11T04:57:32.788Z,88.69
2018-01-11T04:58:32.193Z,88.76
2018-01-11T04:59:32.392Z,88.94
2018-01-11T05:00:32.512Z,88.79
2018-01-11T05:01:32.754Z,89.1
2018-01-11T05:02:32.073Z,89.37
2018-01-11T05:03:32.302Z,89.18
2018-01-11T05:04:32.913Z,89.01
2018-01-11T05:05:32.521Z,89.3
2018-01-11T05:06:32.618Z,89.2
2018-01-11T05:07:32.883Z,89.17
2018-01-11T05:08:32.150Z,89
2018-01-11T05:09:32.513Z,89.58
2018-01-11T05:10:32.699Z,89.52
2018-01-11T05:11:32.758Z,89.33
2018-01-11T05:12:33.098Z,89.63
2018-01-11T05:13:32.257Z,89.74
2018-01-11T05:14:32.292Z,89.78
2018-01-11T05:15:32.580Z,89.92
2018-01-11T05:16:32.660Z,90.12
2018-01-11T05:17:33.056Z,90.06
2018-01-11T05:18:32.334Z,90.05
2018-01-11T05:19:32.509Z,90.24
2018-01-11T05:20:32.842Z,90.53
2018-01-11T05:21:33.246Z,90.2
2018-01-11T05:22:32.484Z,90
2018-01-11T05:23:32.787Z,90.14
2018-01-11T05:24:31.867Z,89.75
2018-01-11T05:25:31.956Z,89.64
2018-01-11T05:26:32.144Z,89.85
2018-01-11T05:27:32.762Z,90.21
2018-01-11T05:28:32.776Z,90.28
2018-01-11T05:29:33.049Z,89.93
2018-01-11T05:30:32.521Z,89.81
2018-01-11T05:31:32.630Z,89.71
2018-01-11T05:32:32.798Z,90.1
2018-01-11T05:33:31.995Z,90.04
2018-01-11T05:34:32.102Z,90.05
2018-01-11T05:35:32.566Z,89.79
2018-01-11T05:36:32.995Z,89.22
2018-01-11T05:37:32.160Z,89.42
2018-01-11T05:38:32.685Z,89.73
2018-01-11T05:39:32.905Z,89.79
2018-01-11T05:40:32.044Z,89.67
2018-01-11T05:41:32.581Z,89.49
2018-01-11T05:42:33.245Z,89.38
2018-01-11T05:43:32.714Z,89.12
2018-01-11T05:44:33.177Z,89.18
2018-01-11T05:45:32.452Z,89.17
2018-01-11T05:46:33.313Z,89.58
2018-01-11T05:47:32.570Z,89.29
2018-01-11T05:48:32.810Z,89.26
2018-01-11T05:49:32.048Z,89.39
2018-01-11T05:50:32.235Z,89.27
2018-01-11T05:51:32.532Z,89.47
2018-01-11T05:52:32.073Z,89.44
2018-01-11T05:53:32.227Z,89.36
2018-01-11T05:54:32.529Z,89.28
2018-01-11T05:55:32.909Z,89.11
2018-01-11T05:56:32.436Z,89.24
2018-01-11T05:57:32.812Z,89.33
2018-01-11T05:58:32.113Z,89.53
2018-01-11T05:59:32.515Z,89.29
2018-01-11T06:00:32.645Z,89.24
2018-01-11T06:01:32.117Z,89.33
2018-01-11T06:02:32.475Z,88.78
2018-01-11T06:03:31.948Z,88.73
2018-01-11T06:04:32.276Z,88.75
2018-01-11T06:05:32.388Z,88.73
2018-01-11T06:06:32.684Z,88.61
2018-01-11T06:07:31.821Z,89.02
2018-01-11T06:08:32.104Z,89.07
2018-01-11T06:09:32.334Z,88.73
2018-01-11T06:10:32.421Z,88.66
2018-01-11T06:11:32.684Z,88.72
2018-01-11T06:12:31.855Z,88.86
2018-01-11T06:13:32.108Z,88.71
2018-01-11T06:14:32.400Z,88.72
2018-01-11T06:15:32.664Z,88.79
2018-01-11T06:16:32.885Z,88.96
2018-01-11T06:17:32.050Z,88.87
2018-01-11T06:18:32.208Z,88.88
2018-01-11T06:19:32.643Z,89
2018-01-11T06:20:31.951Z,88.87
2018-01-11T06:21:32.037Z,88.71
2018-01-11T06:22:32.207Z,88.75
2018-01-11T06:23:32.644Z,88.56
2018-01-11T06:24:32.206Z,88.49
2018-01-11T06:25:32.422Z,88.65
2018-01-11T06:26:31.613Z,88.7
2018-01-11T06:27:32.087Z,88.9
2018-01-11T06:28:32.575Z,88.38
2018-01-11T06:29:31.758Z,88.72
2018-01-11T06:30:31.948Z,88.69
2018-01-11T06:31:32.137Z,88.17
2018-01-11T06:32:31.652Z,88.18
2018-01-11T06:33:31.932Z,88.34
2018-01-11T06:34:32.160Z,88.18
2018-01-11T06:35:31.675Z,88.33
2018-01-11T06:36:31.985Z,88.3
2018-01-11T06:37:32.296Z,88.3
2018-01-11T06:38:31.609Z,88.28
2018-01-11T06:39:32.399Z,88.19
2018-01-11T06:40:31.715Z,87.92
2018-01-11T06:41:31.842Z,87.94
2018-01-11T06:42:32.222Z,88.19
2018-01-11T06:43:32.571Z,88.19
2018-01-11T06:44:31.859Z,88.05
2018-01-11T06:45:32.354Z,88.27
2018-01-11T06:46:31.623Z,88.2
2018-01-11T06:47:31.807Z,88.12
2018-01-11T06:48:31.978Z,88.34
2018-01-11T06:49:32.233Z,88.27
2018-01-11T06:50:32.692Z,88.19
2018-01-11T06:51:31.902Z,88.35
2018-01-11T06:52:32.033Z,87.95
2018-01-11T06:53:32.263Z,87.76
2018-01-11T06:54:32.517Z,87.8
2018-01-11T06:55:31.897Z,87.97
2018-01-11T06:56:32.046Z,87.77
2018-01-11T06:57:32.233Z,87.84
2018-01-11T06:58:32.342Z,87.77
2018-01-11T06:59:31.624Z,87.72
2018-01-11T07:00:31.900Z,87.69
2018-01-11T07:01:32.122Z,87.59
2018-01-11T07:02:32.437Z,87.93
2018-01-11T07:03:31.730Z,87.79
2018-01-11T07:04:32.039Z,87.99
2018-01-11T07:05:32.289Z,87.97
2018-01-11T07:06:32.463Z,87.77
2018-01-11T07:07:31.744Z,87.77
2018-01-11T07:08:31.878Z,87.78
2018-01-11T07:09:32.033Z,88.01
2018-01-11T07:10:32.338Z,87.83
2018-01-11T07:11:31.478Z,87.75
2018-01-11T07:12:31.622Z,87.79
2018-01-11T07:13:31.901Z,87.86
2018-01-11T07:14:32.230Z,87.86
2018-01-11T07:15:32.518Z,88.19
2018-01-11T07:16:32.026Z,87.95
2018-01-11T07:17:32.202Z,87.9
2018-01-11T07:18:31.728Z,87.82
2018-01-11T07:19:31.929Z,87.44
2018-01-11T07:20:32.162Z,87.54
2018-01-11T07:21:32.687Z,87.77
2018-01-11T07:22:32.164Z,87.87
2018-01-11T07:23:32.329Z,87.92
2018-01-11T07:24:31.519Z,88.22
2018-01-11T07:25:31.778Z,88.12
2018-01-11T07:26:32.104Z,88.05
2018-01-11T07:27:32.447Z,88.22
2018-01-11T07:28:31.860Z,88.22
2018-01-11T07:29:32.113Z,88.18
2018-01-11T07:30:32.390Z,88
2018-01-11T07:31:31.640Z,87.84
2018-01-11T07:32:32.043Z,88.09
2018-01-11T07:33:32.395Z,88.05
2018-01-11T07:34:31.763Z,87.94
2018-01-11T07:35:32.687Z,87.73
2018-01-11T07:36:31.784Z,87.74
2018-01-11T07:37:31.946Z,87.8
2018-01-11T07:38:32.140Z,87.61
2018-01-11T07:39:31.783Z,87.69
2018-01-11T07:40:32.052Z,87.76
2018-01-11T07:41:32.340Z,87.89
2018-01-11T07:42:31.677Z,88.06
2018-01-11T07:43:31.899Z,88.33
2018-01-11T07:44:32.141Z,88.56
2018-01-11T07:45:32.266Z,88.46
2018-01-11T07:46:32.389Z,88.11
2018-01-11T07:47:31.574Z,88.02
2018-01-11T07:48:31.774Z,87.92
2018-01-11T07:49:31.869Z,87.99
2018-01-11T07:50:32.175Z,88.09
2018-01-11T07:51:32.296Z,87.87
2018-01-11T07:52:31.617Z,87.85
2018-01-11T07:53:31.797Z,88.02
2018-01-11T07:54:32.140Z,87.77
2018-01-11T07:55:32.422Z,87.82
2018-01-11T07:56:31.685Z,87.75
2018-01-11T07:57:31.905Z,87.6
2018-01-11T07:58:32.096Z,87.54
2018-01-11T07:59:32.540Z,87.46
2018-01-11T08:00:31.821Z,87.54
2018-01-11T08:01:32.152Z,87.61
2018-01-11T08:02:32.484Z,87.1
2018-01-11T08:03:31.734Z,87.33
2018-01-11T08:04:31.966Z,87.41
2018-01-11T08:05:32.097Z,87.39
2018-01-11T08:06:32.171Z,87.38
2018-01-11T08:07:32.476Z,87.37
2018-01-11T08:08:31.878Z,87.68
2018-01-11T08:09:32.421Z,87.32
2018-01-11T08:10:31.714Z,87.27
2018-01-11T08:11:32.259Z,87.23
2018-01-11T08:12:32.598Z,87.45
2018-01-11T08:13:31.942Z,86.98
2018-01-11T08:14:32.413Z,87.12
2018-01-11T08:15:31.708Z,86.81
2018-01-11T08:16:32.028Z,87.07
2018-01-11T08:17:32.429Z,86.99
2018-01-11T08:18:31.642Z,87.15
2018-01-11T08:19:31.942Z,86.74
2018-01-11T08:20:32.143Z,86.89
2018-01-11T08:21:32.471Z,87
2018-01-11T08:22:31.924Z,87.03
2018-01-11T08:23:32.111Z,86.52
2018-01-11T08:24:32.428Z,86.8
2018-01-11T08:25:32.728Z,86.86
2018-01-11T08:26:32.031Z,86.77
2018-01-11T08:27:32.283Z,86.9
2018-01-11T08:28:32.428Z,87.07
2018-01-11T08:29:32.855Z,87.21
2018-01-11T08:30:32.292Z,87.08
2018-01-11T08:31:32.458Z,87.03
2018-01-11T08:32:32.607Z,87.12
2018-01-11T08:33:31.845Z,87.07
2018-01-11T08:34:32.089Z,87.15
2018-01-11T08:35:32.265Z,87.18
2018-01-11T08:36:32.456Z,86.96
2018-01-11T08:37:32.745Z,87.01
2018-01-11T08:38:32.955Z,86.77
2018-01-11T08:39:32.277Z,87
2018-01-11T08:40:32.651Z,87.26
2018-01-11T08:41:32.781Z,86.8
2018-01-11T08:42:31.894Z,86.23
2018-01-11T08:43:32.130Z,86.5
2018-01-11T08:44:32.479Z,86.43
2018-01-11T08:45:32.620Z,86.29
2018-01-11T08:46:32.854Z,86.38
2018-01-11T08:47:32.171Z,86.62
2018-01-11T08:48:32.447Z,86.02
2018-01-11T08:49:32.750Z,85.88
2018-01-11T08:50:32.073Z,85.79
2018-01-11T08:51:32.387Z,86.08
2018-01-11T08:52:32.698Z,86
2018-01-11T08:53:31.793Z,85.89
2018-01-11T08:54:32.098Z,86.01
2018-01-11T08:55:32.523Z,85.85
2018-01-11T08:56:31.772Z,86.06
2018-01-11T08:57:31.928Z,86
2018-01-11T08:58:32.431Z,85.92
2018-01-11T08:59:32.611Z,86.18
2018-01-11T09:00:31.696Z,85.83
2018-01-11T09:01:31.672Z,85.41
2018-01-11T09:02:31.813Z,85.64
2018-01-11T09:03:31.856Z,85.41
2018-01-11T09:04:31.883Z,85.67
2018-01-11T09:05:32.043Z,85.67
2018-01-11T09:06:32.590Z,85.93
2018-01-11T09:07:31.908Z,85.74
2018-01-11T09:08:32.403Z,85.55
2018-01-11T09:09:32.728Z,85.58
2018-01-11T09:10:32.013Z,85.52
2018-01-11T09:11:32.311Z,85.48
2018-01-11T09:12:32.600Z,85.42
2018-01-11T09:13:31.890Z,85.58
2018-01-11T09:14:32.101Z,85.36
2018-01-11T09:15:32.388Z,85.31
2018-01-11T09:16:32.757Z,85.17
2018-01-11T09:17:32.153Z,85.35
2018-01-11T09:18:32.315Z,85.37
2018-01-11T09:19:32.689Z,85.06
2018-01-11T09:20:31.865Z,85.15
2018-01-11T09:21:32.151Z,85.2
2018-01-11T09:22:32.384Z,85.25
2018-01-11T09:23:32.592Z,85.34
2018-01-11T09:24:31.694Z,85.06
2018-01-11T09:25:32.091Z,84.75
2018-01-11T09:26:32.364Z,84.92
2018-01-11T09:27:32.559Z,84.92
2018-01-11T09:28:31.923Z,85.26
2018-01-11T09:29:32.325Z,85.35
2018-01-11T09:30:32.887Z,84.81
2018-01-11T09:31:32.258Z,84.71
2018-01-11T09:32:32.467Z,84.48
2018-01-11T09:33:32.650Z,84.5
2018-01-11T09:34:31.989Z,83.79
2018-01-11T09:35:32.372Z,84.02
2018-01-11T09:36:32.613Z,84.09
2018-01-11T09:37:32.075Z,84.32
2018-01-11T09:38:32.330Z,84.2
2018-01-11T09:39:32.769Z,84.48
2018-01-11T09:40:32.121Z,84.33
2018-01-11T09:41:32.475Z,84.51
2018-01-11T09:42:31.732Z,84.7
2018-01-11T09:43:31.967Z,84.59
2018-01-11T09:44:32.075Z,84.55
2018-01-11T09:45:32.286Z,84.38
2018-01-11T09:46:32.335Z,84.22
2018-01-11T09:47:32.654Z,83.99
2018-01-11T09:48:32.042Z,84.32
2018-01-11T09:49:32.151Z,84.43
2018-01-11T09:50:32.383Z,84.18
2018-01-11T09:51:32.433Z,84.31
2018-01-11T09:52:32.651Z,83.88
2018-01-11T09:53:31.941Z,83.88
2018-01-11T09:54:32.216Z,84.19
2018-01-11T09:55:32.411Z,84.14
2018-01-11T09:56:32.630Z,84.43
2018-01-11T09:57:32.785Z,83.64
2018-01-11T09:58:32.818Z,83.78
2018-01-11T09:59:32.814Z,83.92
2018-01-11T10:00:33.127Z,84.16
2018-01-11T10:01:32.499Z,84.21
2018-01-11T10:02:32.709Z,83.82
2018-01-11T10:03:32.815Z,84.14
2018-01-11T10:04:32.960Z,83.71
2018-01-11T10:05:34.004Z,83.56
2018-01-11T10:06:33.001Z,83.26
2018-01-11T10:07:32.376Z,83.21
2018-01-11T10:08:33.914Z,83.46
2018-01-11T10:09:32.418Z,83.56
2018-01-11T10:10:32.617Z,83.22
2018-01-11T10:11:32.668Z,83.36
2018-01-11T10:12:33.022Z,83.11
2018-01-11T10:13:32.209Z,83.39
2018-01-11T10:14:32.540Z,83.54
2018-01-11T10:15:32.886Z,83.31
2018-01-11T10:16:33.280Z,83.28
2018-01-11T10:17:33.364Z,83.1
2018-01-11T10:18:32.489Z,82.79
2018-01-11T10:19:33.579Z,83.4
2018-01-11T10:20:32.911Z,83.44
2018-01-11T10:21:32.181Z,83.47
2018-01-11T10:22:33.119Z,83.18
2018-01-11T10:23:32.831Z,83.4
2018-01-11T10:24:33.317Z,83.55
2018-01-11T10:25:32.652Z,83.55
2018-01-11T10:26:33.769Z,83.13
2018-01-11T10:27:34.146Z,83.2
2018-01-11T10:28:32.557Z,83.36
2018-01-11T10:29:32.655Z,82.97
2018-01-11T10:30:33.582Z,83.31
2018-01-11T10:31:32.679Z,83.29
2018-01-11T10:32:32.759Z,83.25
2018-01-11T10:33:33.798Z,83.3
2018-01-11T10:34:32.974Z,83.23
2018-01-11T10:35:32.226Z,83.15
2018-01-11T10:36:36.685Z,83.12
2018-01-11T10:37:34.662Z,83.17
2018-01-11T10:38:32.833Z,83.47
2018-01-11T10:39:33.022Z,83.13
2018-01-11T10:40:32.119Z,83.27
2018-01-11T10:41:32.439Z,83.56
2018-01-11T10:42:32.693Z,83.52
2018-01-11T10:43:32.969Z,83.35
2018-01-11T10:44:32.098Z,83.2
2018-01-11T10:45:32.426Z,83.45
2018-01-11T10:46:32.662Z,83.16
2018-01-11T10:47:32.876Z,83.23
2018-01-11T10:48:33.281Z,83.54
2018-01-11T10:49:32.646Z,83.72
2018-01-11T10:50:32.904Z,83.68
2018-01-11T10:51:31.964Z,83.59
2018-01-11T10:52:32.125Z,83.52
2018-01-11T10:53:32.182Z,83.09
2018-01-11T10:54:32.500Z,83.03
2018-01-11T10:55:32.856Z,82.86
2018-01-11T10:56:32.169Z,82.29
2018-01-11T10:57:32.283Z,83.26
2018-01-11T10:58:32.574Z,82.66
2018-01-11T10:59:32.196Z,83.34
2018-01-11T11:00:32.485Z,82.99
2018-01-11T11:01:32.651Z,83.02
2018-01-11T11:02:31.812Z,82.93
2018-01-11T11:03:31.956Z,84.01
2018-01-11T11:04:32.229Z,83.47
2018-01-11T11:05:32.477Z,83.55
2018-01-11T11:06:32.656Z,83.02
2018-01-11T11:07:31.976Z,82.78
2018-01-11T11:08:32.132Z,82.85
2018-01-11T11:09:32.256Z,83.04
2018-01-11T11:10:32.540Z,83.21
2018-01-11T11:11:32.939Z,83.19
2018-01-11T11:12:32.385Z,82.92
2018-01-11T11:13:32.760Z,82.73
2018-01-11T11:14:31.919Z,83.03
2018-01-11T11:15:32.280Z,83.16
2018-01-11T11:16:32.724Z,82.72
2018-01-11T11:17:32.206Z,82.44
2018-01-11T11:18:32.303Z,82.17
2018-01-11T11:19:32.400Z,82.4
2018-01-11T11:20:32.706Z,82.73
2018-01-11T11:21:31.776Z,82.91
2018-01-11T11:22:32.110Z,83.14
2018-01-11T11:23:32.277Z,83.1
2018-01-11T11:24:32.620Z,82.54
2018-01-11T11:25:33.035Z,82.74
2018-01-11T11:26:32.428Z,83.02
2018-01-11T11:27:31.584Z,82.86
2018-01-11T11:28:31.965Z,82.84
2018-01-11T11:29:32.147Z,82.99
2018-01-11T11:30:31.361Z,83
2018-01-11T11:31:32.885Z,82.71
2018-01-11T11:32:32.581Z,82.58
2018-01-11T11:33:33.174Z,82.81
2018-01-11T11:34:31.965Z,82.81
2018-01-11T11:35:32.282Z,82.39
2018-01-11T11:36:31.402Z,82.65
2018-01-11T11:37:31.775Z,82.81
2018-01-11T11:38:32.043Z,83.56
2018-01-11T11:39:31.502Z,84.25
2018-01-11T11:40:31.839Z,83.54
2018-01-11T11:41:32.179Z,83.74
2018-01-11T11:42:31.657Z,84.13
2018-01-11T11:43:31.836Z,84.18
2018-01-11T11:44:32.153Z,84.16
2018-01-11T11:45:31.475Z,84.69
2018-01-11T11:46:31.787Z,84.59
2018-01-11T11:47:32.218Z,84.34
2018-01-11T11:48:31.454Z,84.44
2018-01-11T11:49:31.963Z,84.33
2018-01-11T11:50:31.292Z,84.8
2018-01-11T11:51:31.488Z,84.51
2018-01-11T11:52:31.832Z,84.92
2018-01-11T11:53:32.218Z,85.16
2018-01-11T11:54:31.612Z,85.19
2018-01-11T11:55:32.056Z,85.13
2018-01-11T11:56:31.425Z,85.09
2018-01-11T11:57:31.954Z,84.65
2018-01-11T11:58:32.344Z,84.97
2018-01-11T11:59:32.786Z,85.09
2018-01-11T12:00:32.242Z,84.23
2018-01-11T12:01:32.679Z,84.83
2018-01-11T12:02:32.017Z,85.63
2018-01-11T12:03:33.030Z,85.96
2018-01-11T12:04:32.365Z,86.5
2018-01-11T12:05:32.696Z,86.83
2018-01-11T12:06:31.840Z,86.4
2018-01-11T12:07:32.202Z,86.89
2018-01-11T12:08:32.545Z,86.83
2018-01-11T12:09:32.085Z,86.5
2018-01-11T12:10:32.333Z,86.11
2018-01-11T12:11:32.741Z,85.65
2018-01-11T12:12:32.221Z,85.55
2018-01-11T12:13:32.673Z,85.4
2018-01-11T12:14:31.918Z,86.29
2018-01-11T12:15:32.077Z,85.97
2018-01-11T12:16:32.347Z,85.81
2018-01-11T12:17:34.917Z,85.9
2018-01-11T12:18:32.172Z,84.51
2018-01-11T12:19:32.582Z,84.39
2018-01-11T12:20:34.014Z,84.08
2018-01-11T12:21:32.607Z,84.68
2018-01-11T12:22:35.176Z,84.82
2018-01-11T12:23:32.683Z,85.07
2018-01-11T12:24:32.193Z,84.69
2018-01-11T12:25:32.606Z,83.66
2018-01-11T12:26:31.854Z,83.89
2018-01-11T12:27:32.436Z,83.91
2018-01-11T12:28:33.431Z,84.18
2018-01-11T12:29:32.698Z,84.86
2018-01-11T12:30:42.921Z,84.9
2018-01-11T12:31:33.390Z,84.66
2018-01-11T12:32:33.829Z,84.91
2018-01-11T12:33:33.291Z,84.74
2018-01-11T12:34:32.590Z,84.34
2018-01-11T12:35:33.030Z,85.02
2018-01-11T12:36:32.380Z,84.99
2018-01-11T12:37:32.765Z,84.69
2018-01-11T12:38:54.919Z,84.66
2018-01-11T12:39:33.190Z,85.13
2018-01-11T12:40:32.568Z,84.79
2018-01-11T12:41:32.962Z,84.59
2018-01-11T12:42:32.429Z,84.74
2018-01-11T12:43:32.783Z,85.28
2018-01-11T12:44:33.161Z,84.92
2018-01-11T12:45:32.451Z,85.24
2018-01-11T12:46:32.736Z,85.4
2018-01-11T12:47:33.016Z,85.11
2018-01-11T12:48:32.473Z,85.06
2018-01-11T12:49:33.000Z,85.44
2018-01-11T12:50:32.501Z,84.94
2018-01-11T12:51:32.819Z,85.53
2018-01-11T12:52:33.226Z,85.72
2018-01-11T12:53:32.744Z,85.58
2018-01-11T12:54:33.250Z,85.71
2018-01-11T12:55:33.092Z,85.96
2018-01-11T12:56:32.370Z,86.09
2018-01-11T12:57:33.058Z,86.02
2018-01-11T12:58:32.437Z,86.02
2018-01-11T12:59:32.681Z,85.94
2018-01-11T13:00:32.040Z,85.93